createdAt,value
2023-05-08T00:00:47.121Z,14.40
2023-05-08T00:03:20.237Z,14.98
2023-05-08T00:05:55.393Z,15.73
2023-05-08T00:08:29.338Z,15.50
2023-05-08T00:11:02.403Z,14.51
2023-05-08T00:13:35.531Z,14.17
2023-05-08T00:16:11.644Z,14.25
2023-05-08T00:18:44.943Z,14.43
2023-05-08T00:21:17.794Z,14.65
2023-05-08T00:23:50.648Z,15.20
2023-05-08T00:26:23.608Z,15.09
2023-05-08T00:28:56.542Z,14.85
2023-05-08T00:31:30.766Z,14.87
2023-05-08T00:34:03.803Z,14.41
2023-05-08T00:36:36.712Z,13.88
2023-05-08T00:39:09.647Z,13.88
2023-05-08T00:41:42.673Z,13.41
2023-05-08T00:44:15.566Z,14.43
2023-05-08T00:46:50.172Z,13.87
2023-05-08T00:49:23.556Z,13.46
2023-05-08T00:51:57.589Z,14.11
2023-05-08T00:54:30.956Z,14.15
2023-05-08T00:57:04.108Z,13.72
2023-05-08T00:59:38.049Z,14.20
2023-05-08T01:02:13.071Z,13.69
2023-05-08T01:04:47.389Z,14.31
2023-05-08T01:07:20.377Z,13.83
2023-05-08T01:09:53.356Z,13.58
2023-05-08T01:12:31.215Z,13.80
2023-05-08T01:15:09.842Z,13.80
2023-05-08T01:17:48.747Z,13.00
2023-05-08T01:20:27.582Z,13.48
2023-05-08T01:23:27.628Z,13.00
2023-05-08T01:26:20.613Z,13.84
2023-05-08T01:29:11.475Z,14.00
2023-05-08T01:31:52.977Z,13.35
2023-05-08T01:34:31.892Z,13.17
2023-05-08T01:37:06.536Z,13.96
2023-05-08T01:39:44.647Z,13.39
2023-05-08T01:42:20.005Z,13.52
2023-05-08T01:44:55.970Z,13.30
2023-05-08T01:47:31.170Z,12.77
2023-05-08T01:50:08.949Z,13.17
2023-05-08T01:52:44.785Z,13.49
2023-05-08T01:55:21.427Z,14.02
2023-05-08T01:57:55.922Z,13.75
2023-05-08T02:00:29.582Z,13.59
2023-05-08T02:03:03.715Z,13.61
2023-05-08T02:05:38.334Z,13.62
2023-05-08T02:08:12.940Z,12.83
2023-05-08T02:10:47.496Z,12.45
2023-05-08T02:13:22.440Z,12.53
2023-05-08T02:15:56.190Z,13.18
2023-05-08T02:18:31.106Z,13.70
2023-05-08T02:21:06.633Z,12.65
2023-05-08T02:23:39.573Z,12.49
2023-05-08T02:26:14.106Z,12.18
2023-05-08T02:28:47.219Z,12.24
2023-05-08T02:31:20.391Z,12.46
2023-05-08T02:33:53.833Z,13.29
2023-05-08T02:36:29.514Z,12.95
2023-05-08T02:39:03.892Z,12.78
2023-05-08T02:41:38.430Z,12.50
2023-05-08T02:44:11.364Z,13.05
2023-05-08T02:46:48.300Z,12.62
2023-05-08T02:49:27.135Z,12.57
2023-05-08T02:52:06.860Z,12.36
2023-05-08T02:54:43.445Z,12.70
2023-05-08T02:57:23.031Z,12.13
2023-05-08T02:59:58.725Z,13.12
2023-05-08T03:02:36.567Z,13.67
2023-05-08T03:05:18.281Z,13.81
2023-05-08T03:07:54.314Z,14.08
2023-05-08T03:10:35.152Z,13.85
2023-05-08T03:13:10.598Z,13.67
2023-05-08T03:15:44.608Z,13.51
2023-05-08T03:18:19.049Z,12.81
2023-05-08T03:20:55.512Z,12.70
2023-05-08T03:23:31.099Z,11.88
2023-05-08T03:26:04.322Z,11.97
2023-05-08T03:28:37.793Z,11.70
2023-05-08T03:31:12.725Z,11.61
2023-05-08T03:33:46.312Z,11.35
2023-05-08T03:36:19.419Z,10.97
2023-05-08T03:38:53.758Z,11.27
2023-05-08T03:41:26.989Z,11.22
2023-05-08T03:44:00.455Z,11.23
2023-05-08T03:46:34.151Z,11.52
2023-05-08T03:49:10.108Z,11.55
2023-05-08T03:51:43.748Z,11.75
2023-05-08T03:54:19.934Z,11.92
2023-05-08T03:56:53.393Z,11.71
2023-05-08T03:59:30.829Z,11.82
2023-05-08T04:02:10.434Z,11.64
2023-05-08T04:04:45.675Z,11.16
2023-05-08T04:07:25.955Z,11.72
2023-05-08T04:10:04.829Z,11.41
2023-05-08T04:12:40.923Z,11.46
2023-05-08T04:15:18.849Z,11.78
2023-05-08T04:17:55.864Z,11.50
2023-05-08T04:20:30.587Z,11.60
2023-05-08T04:23:05.195Z,11.97
2023-05-08T04:25:40.193Z,11.71
2023-05-08T04:28:13.189Z,11.44
2023-05-08T04:30:46.234Z,11.83
2023-05-08T04:33:19.498Z,12.06
2023-05-08T04:35:52.609Z,11.83
2023-05-08T04:38:25.526Z,12.06
2023-05-08T04:41:00.022Z,12.00
2023-05-08T04:43:33.014Z,11.64
2023-05-08T04:46:06.860Z,11.68
2023-05-08T04:48:40.178Z,11.48
2023-05-08T04:51:13.280Z,11.74
2023-05-08T04:53:46.433Z,11.67
2023-05-08T04:56:20.926Z,11.77
2023-05-08T04:58:54.128Z,12.07
2023-05-08T05:01:27.080Z,12.17
2023-05-08T05:04:02.198Z,11.97
2023-05-08T05:06:35.517Z,12.46
2023-05-08T05:09:08.465Z,12.65
2023-05-08T05:11:42.910Z,13.58
2023-05-08T05:14:15.820Z,13.99
2023-05-08T05:16:50.547Z,13.56
2023-05-08T05:19:23.606Z,13.80
2023-05-08T05:21:56.485Z,13.20
2023-05-08T05:24:29.345Z,13.23
2023-05-08T05:27:04.646Z,13.41
2023-05-08T05:29:37.833Z,13.22
2023-05-08T05:32:11.702Z,13.38
2023-05-08T05:34:44.559Z,13.22
2023-05-08T05:37:17.330Z,14.19
2023-05-08T05:39:50.361Z,14.35
2023-05-08T05:42:24.623Z,14.28
2023-05-08T05:44:57.797Z,13.60
2023-05-08T05:47:30.794Z,13.76
2023-05-08T05:50:03.706Z,13.66
2023-05-08T05:52:36.638Z,13.11
2023-05-08T05:55:09.707Z,13.75
2023-05-08T05:57:44.024Z,14.81
2023-05-08T06:00:17.655Z,14.39
2023-05-08T06:02:50.707Z,14.32
2023-05-08T06:05:24.021Z,14.51
2023-05-08T06:07:57.293Z,13.88
2023-05-08T06:10:30.207Z,14.26
2023-05-08T06:13:04.524Z,14.24
2023-05-08T06:15:37.578Z,14.30
2023-05-08T06:18:10.774Z,14.93
2023-05-08T06:20:43.906Z,14.33
2023-05-08T06:23:16.757Z,14.93
2023-05-08T06:25:49.615Z,14.61
2023-05-08T06:28:26.071Z,14.60
2023-05-08T06:30:59.404Z,14.45
2023-05-08T06:33:32.331Z,14.47
2023-05-08T06:36:06.213Z,15.00
2023-05-08T06:38:39.137Z,15.55
2023-05-08T06:41:14.527Z,16.25
2023-05-08T06:43:49.610Z,16.14
2023-05-08T06:46:22.766Z,16.44
2023-05-08T06:48:55.717Z,15.50
2023-05-08T06:51:28.614Z,16.67
2023-05-08T06:54:01.540Z,16.65
2023-05-08T06:56:35.176Z,16.69
2023-05-08T06:59:09.525Z,16.86
2023-05-08T07:01:42.823Z,17.28
2023-05-08T07:04:16.012Z,17.39
2023-05-08T07:06:48.854Z,16.93
2023-05-08T07:09:21.654Z,17.14
2023-05-08T07:11:54.498Z,16.48
2023-05-08T07:14:28.807Z,17.51
2023-05-08T07:17:06.810Z,17.74
2023-05-08T07:19:39.884Z,17.57
2023-05-08T07:22:13.066Z,17.54
2023-05-08T07:24:46.613Z,16.98
2023-05-08T07:27:20.297Z,16.95
2023-05-08T07:29:54.644Z,16.74
2023-05-08T07:32:27.525Z,17.38
2023-05-08T07:35:00.605Z,18.15
2023-05-08T07:37:33.927Z,17.94
2023-05-08T07:40:07.752Z,17.37
2023-05-08T07:42:42.201Z,18.12
2023-05-08T07:45:16.865Z,18.35
2023-05-08T07:47:50.681Z,17.94
2023-05-08T07:50:24.023Z,18.23
2023-05-08T07:52:57.619Z,17.39
2023-05-08T07:55:30.700Z,17.77
2023-05-08T07:58:03.674Z,18.31
2023-05-08T08:00:39.099Z,17.62
2023-05-08T08:03:12.134Z,17.37
2023-05-08T08:05:45.326Z,18.02
2023-05-08T08:08:18.391Z,17.11
2023-05-08T08:10:51.787Z,18.65
2023-05-08T08:13:25.105Z,18.06
2023-05-08T08:15:59.594Z,17.26
2023-05-08T08:18:35.149Z,17.09
2023-05-08T08:21:08.458Z,18.70
2023-05-08T08:23:41.430Z,18.84
2023-05-08T08:26:14.730Z,18.55
2023-05-08T08:28:47.718Z,18.42
2023-05-08T08:31:21.966Z,17.95
2023-05-08T08:33:54.877Z,18.71
2023-05-08T08:36:28.163Z,18.86
2023-05-08T08:39:01.167Z,18.59
2023-05-08T08:41:34.222Z,18.72
2023-05-08T08:44:07.625Z,18.65
2023-05-08T08:46:50.862Z,18.23
2023-05-08T08:49:26.093Z,18.31
2023-05-08T08:52:00.909Z,18.95
2023-05-08T08:54:35.998Z,19.43
2023-05-08T08:57:10.930Z,18.91
2023-05-08T08:59:44.670Z,18.77
2023-05-08T09:02:20.270Z,19.32
2023-05-08T09:04:53.444Z,19.58
2023-05-08T09:07:26.922Z,19.21
2023-05-08T09:10:00.611Z,18.51
2023-05-08T09:12:34.661Z,19.02
2023-05-08T09:15:08.030Z,18.87
2023-05-08T09:17:42.722Z,19.03
2023-05-08T09:20:16.222Z,19.12
2023-05-08T09:22:50.086Z,19.59
2023-05-08T09:25:23.091Z,19.50
2023-05-08T09:28:16.130Z,19.57
2023-05-08T09:30:53.316Z,19.52
2023-05-08T09:33:28.277Z,19.25
2023-05-08T09:36:01.433Z,19.58
2023-05-08T09:38:35.285Z,19.26
2023-05-08T09:41:09.649Z,19.68
2023-05-08T09:43:43.006Z,19.92
2023-05-08T09:46:23.500Z,19.83
2023-05-08T09:48:59.911Z,19.35
2023-05-08T09:51:33.193Z,19.61
2023-05-08T09:54:18.130Z,19.73
2023-05-08T09:56:51.192Z,20.01
2023-05-08T09:59:25.069Z,19.76
2023-05-08T10:01:58.003Z,20.10
2023-05-08T10:04:35.209Z,19.76
2023-05-08T10:07:08.148Z,19.83
2023-05-08T10:09:50.356Z,20.07
2023-05-08T10:12:23.985Z,20.26
2023-05-08T10:14:57.075Z,19.95
2023-05-08T10:17:37.004Z,20.33
2023-05-08T10:20:13.084Z,20.39
2023-05-08T10:22:46.855Z,20.21
2023-05-08T10:25:21.893Z,20.23
2023-05-08T10:27:57.436Z,20.46
2023-05-08T10:30:32.009Z,20.21
2023-05-08T10:33:09.442Z,20.11
2023-05-08T10:35:43.997Z,20.52
2023-05-08T10:38:17.891Z,20.46
2023-05-08T10:40:53.451Z,20.50
2023-05-08T10:43:26.432Z,20.61
2023-05-08T10:45:59.646Z,20.96
2023-05-08T10:48:36.687Z,21.08
2023-05-08T10:51:14.911Z,21.18
2023-05-08T10:53:52.292Z,21.00
2023-05-08T10:56:28.646Z,20.76
2023-05-08T10:59:01.657Z,20.82
2023-05-08T11:01:34.979Z,21.11
2023-05-08T11:04:20.703Z,21.07
2023-05-08T11:06:55.367Z,21.08
2023-05-08T11:09:29.870Z,20.91
2023-05-08T11:12:08.620Z,21.19
2023-05-08T11:14:43.728Z,21.14
2023-05-08T11:17:24.025Z,21.25
2023-05-08T11:19:58.305Z,21.11
2023-05-08T11:22:33.292Z,21.16
2023-05-08T11:25:07.179Z,21.14
2023-05-08T11:27:42.565Z,21.31
2023-05-08T11:30:23.030Z,21.34
2023-05-08T11:32:59.856Z,21.32
2023-05-08T11:35:42.557Z,21.48
2023-05-08T11:38:18.018Z,21.57
2023-05-08T11:40:56.033Z,21.23
2023-05-08T11:43:47.250Z,21.04
2023-05-08T11:46:21.550Z,21.30
2023-05-08T11:49:01.311Z,21.27
2023-05-08T11:51:37.268Z,21.61
2023-05-08T11:54:11.750Z,21.59
2023-05-08T11:56:47.707Z,21.53
2023-05-08T11:59:21.730Z,21.47
2023-05-08T12:04:31.154Z,21.33
2023-05-08T12:07:04.078Z,21.31
2023-05-08T12:09:38.679Z,21.55
2023-05-08T12:12:11.608Z,21.53
2023-05-08T12:14:44.402Z,21.59
2023-05-08T12:17:18.213Z,21.65
2023-05-08T12:19:55.499Z,21.44
2023-05-08T12:22:28.430Z,21.62
2023-05-08T12:25:04.221Z,21.73
2023-05-08T12:27:37.671Z,21.83
2023-05-08T12:30:11.869Z,21.97
2023-05-08T12:32:45.574Z,21.89
2023-05-08T12:35:19.882Z,21.88
2023-05-08T12:37:53.480Z,21.89
2023-05-08T12:40:29.084Z,21.87
2023-05-08T12:43:02.814Z,21.83
2023-05-08T12:45:38.684Z,21.85
2023-05-08T12:48:12.275Z,21.99
2023-05-08T12:50:46.118Z,21.85
2023-05-08T12:53:19.926Z,22.02
2023-05-08T12:55:54.680Z,21.83
2023-05-08T12:58:27.904Z,22.00
2023-05-08T13:01:10.005Z,22.12
2023-05-08T13:03:43.154Z,22.13
2023-05-08T13:06:25.323Z,22.20
2023-05-08T13:08:58.203Z,22.19
2023-05-08T13:11:34.397Z,22.20
2023-05-08T13:14:07.561Z,22.20
2023-05-08T13:16:44.267Z,22.23
2023-05-08T13:19:17.936Z,22.17
2023-05-08T13:21:52.939Z,22.09
2023-05-08T13:24:26.906Z,22.00
2023-05-08T13:27:02.053Z,22.19
2023-05-08T13:29:35.246Z,22.17
2023-05-08T13:32:08.513Z,22.12
2023-05-08T13:34:47.637Z,22.13
2023-05-08T13:37:23.886Z,22.16
2023-05-08T13:39:56.751Z,22.14
2023-05-08T13:42:31.006Z,22.14
2023-05-08T13:45:04.021Z,22.14
2023-05-08T13:47:36.966Z,22.08
2023-05-08T13:50:10.469Z,22.21
2023-05-08T13:52:43.799Z,22.46
2023-05-08T13:55:17.182Z,22.30
2023-05-08T13:57:51.633Z,22.37
2023-05-08T14:00:26.007Z,22.18
2023-05-08T14:03:01.162Z,22.35
2023-05-08T14:05:33.989Z,22.55
2023-05-08T14:08:06.912Z,22.62
2023-05-08T14:10:40.844Z,22.56
2023-05-08T14:13:15.484Z,22.43
2023-05-08T14:15:48.462Z,22.51
2023-05-08T14:18:21.652Z,22.69
2023-05-08T14:20:57.370Z,22.81
2023-05-08T14:23:30.553Z,22.63
2023-05-08T14:26:03.609Z,22.66
2023-05-08T14:28:38.082Z,22.63
2023-05-08T14:31:10.972Z,22.60
2023-05-08T14:33:44.084Z,22.38
2023-05-08T14:36:17.025Z,22.47
2023-05-08T14:38:49.921Z,22.58
2023-05-08T14:41:22.845Z,22.52
2023-05-08T14:43:57.296Z,22.47
2023-05-08T14:46:30.436Z,22.67
2023-05-08T14:49:04.427Z,22.48
2023-05-08T14:51:37.236Z,22.27
2023-05-08T14:54:10.249Z,22.31
2023-05-08T14:56:47.110Z,22.39
2023-05-08T14:59:38.694Z,22.33
2023-05-08T15:02:18.091Z,22.50
2023-05-08T15:04:51.354Z,22.33
2023-05-08T15:07:24.286Z,22.25
2023-05-08T15:09:57.361Z,22.19
2023-05-08T15:12:30.406Z,22.07
2023-05-08T15:15:05.123Z,22.21
2023-05-08T15:17:38.028Z,22.09
2023-05-08T15:20:11.343Z,22.19
2023-05-08T15:22:45.447Z,22.03
2023-05-08T15:25:18.471Z,22.17
2023-05-08T15:27:52.925Z,22.15
2023-05-08T15:30:27.206Z,22.40
2023-05-08T15:33:00.114Z,22.04
2023-05-08T15:35:33.425Z,22.12
2023-05-08T15:38:08.967Z,21.89
2023-05-08T15:40:41.972Z,21.83
2023-05-08T15:43:14.971Z,22.03
2023-05-08T15:45:49.460Z,21.81
2023-05-08T15:48:22.541Z,21.67
2023-05-08T15:50:55.494Z,21.73
2023-05-08T15:53:28.558Z,21.60
2023-05-08T15:56:03.615Z,21.53
2023-05-08T15:58:38.982Z,21.66
2023-05-08T16:01:13.588Z,21.33
2023-05-08T16:03:46.587Z,21.51
2023-05-08T16:06:19.943Z,21.48
2023-05-08T16:08:53.129Z,21.11
2023-05-08T16:11:26.026Z,21.02
2023-05-08T16:13:59.035Z,21.09
2023-05-08T16:16:33.455Z,21.47
2023-05-08T16:19:06.344Z,21.13
2023-05-08T16:21:40.517Z,21.14
2023-05-08T16:24:13.452Z,21.24
2023-05-08T16:26:46.628Z,21.11
2023-05-08T16:29:19.912Z,21.46
2023-05-08T16:31:55.050Z,20.99
2023-05-08T16:34:28.579Z,20.91
2023-05-08T16:37:02.934Z,20.97
2023-05-08T16:39:36.676Z,20.70
2023-05-08T16:42:10.539Z,20.55
2023-05-08T16:44:44.379Z,20.72
2023-05-08T16:47:19.828Z,20.56
2023-05-08T16:49:54.658Z,20.33
2023-05-08T16:52:28.902Z,20.80
2023-05-08T16:55:02.378Z,20.62
2023-05-08T16:57:35.743Z,20.68
2023-05-08T17:00:10.038Z,20.66
2023-05-08T17:02:45.561Z,20.41
2023-05-08T17:05:19.755Z,20.47
2023-05-08T17:07:54.475Z,21.21
2023-05-08T17:10:28.312Z,21.07
2023-05-08T17:13:02.293Z,20.77
2023-05-08T17:15:36.281Z,20.45
2023-05-08T17:18:11.560Z,20.75
2023-05-08T17:20:45.482Z,20.79
2023-05-08T17:23:19.718Z,20.49
2023-05-08T17:25:58.093Z,21.25
2023-05-08T17:28:32.021Z,21.52
2023-05-08T17:31:06.067Z,20.34
2023-05-08T17:33:41.955Z,20.72
2023-05-08T17:36:15.804Z,20.57
2023-05-08T17:38:51.372Z,20.80
2023-05-08T17:41:25.152Z,21.63
2023-05-08T17:43:58.923Z,21.00
2023-05-08T17:46:32.767Z,20.39
2023-05-08T17:49:09.057Z,20.14
2023-05-08T17:51:43.243Z,20.65
2023-05-08T17:54:17.273Z,20.90
2023-05-08T17:56:50.432Z,20.97
2023-05-08T17:59:24.271Z,20.45
2023-05-08T18:01:58.101Z,20.23
2023-05-08T18:04:35.523Z,20.34
2023-05-08T18:07:08.792Z,20.47
2023-05-08T18:09:44.906Z,19.47
2023-05-08T18:12:17.760Z,19.16
2023-05-08T18:14:51.089Z,20.57
2023-05-08T18:17:29.564Z,19.99
2023-05-08T18:20:07.758Z,20.20
2023-05-08T18:22:40.840Z,19.41
2023-05-08T18:25:14.049Z,19.09
2023-05-08T18:27:59.010Z,19.82
2023-05-08T18:30:36.479Z,20.24
2023-05-08T18:33:09.489Z,19.37
2023-05-08T18:35:43.919Z,18.37
2023-05-08T18:38:17.823Z,18.22
2023-05-08T18:40:50.922Z,18.30
2023-05-08T18:43:23.915Z,17.65
2023-05-08T18:45:57.738Z,19.04
2023-05-08T18:48:30.870Z,19.04
2023-05-08T18:51:05.427Z,16.98
2023-05-08T18:53:39.023Z,17.12
2023-05-08T18:56:12.780Z,17.14
2023-05-08T18:58:46.539Z,17.36
2023-05-08T19:01:21.304Z,17.46
2023-05-08T19:03:54.715Z,17.80
2023-05-08T19:06:31.681Z,17.67
2023-05-08T19:09:07.968Z,18.62
2023-05-08T19:11:41.601Z,18.88
2023-05-08T19:14:14.793Z,18.03
2023-05-08T19:16:49.723Z,17.80
2023-05-08T19:19:22.752Z,18.60
2023-05-08T19:21:57.619Z,18.44
2023-05-08T19:24:32.119Z,17.56
2023-05-08T19:27:05.272Z,17.68
2023-05-08T19:29:38.277Z,17.54
2023-05-08T19:32:11.706Z,18.20
2023-05-08T19:34:47.969Z,17.32
2023-05-08T19:37:27.445Z,16.83
2023-05-08T19:40:00.552Z,16.05
2023-05-08T19:42:51.054Z,16.53
2023-05-08T19:45:38.954Z,17.05
2023-05-08T19:48:26.838Z,16.27
2023-05-08T19:51:06.365Z,17.13
2023-05-08T19:53:41.396Z,17.35
2023-05-08T19:56:15.368Z,16.73
2023-05-08T19:58:48.747Z,16.27
2023-05-08T20:01:25.843Z,16.41
2023-05-08T20:04:00.723Z,16.57
2023-05-08T20:06:34.018Z,16.61
2023-05-08T20:09:10.523Z,15.91
2023-05-08T20:11:43.598Z,16.08
2023-05-08T20:14:16.899Z,16.77
2023-05-08T20:16:49.878Z,16.54
2023-05-08T20:19:22.988Z,17.11
2023-05-08T20:21:55.872Z,16.33
2023-05-08T20:24:30.136Z,16.35
2023-05-08T20:27:03.357Z,16.14
2023-05-08T20:29:36.427Z,16.42
2023-05-08T20:32:14.422Z,15.55
2023-05-08T20:34:47.637Z,16.04
2023-05-08T20:37:20.998Z,16.02
2023-05-08T20:39:55.185Z,16.58
2023-05-08T20:42:27.965Z,16.53
2023-05-08T20:45:01.020Z,16.38
2023-05-08T20:47:33.951Z,15.73
2023-05-08T20:50:07.576Z,15.78
2023-05-08T20:52:42.358Z,15.19
2023-05-08T20:55:16.795Z,16.29
2023-05-08T20:57:49.694Z,16.27
2023-05-08T21:00:22.560Z,15.82
2023-05-08T21:02:55.497Z,15.36
2023-05-08T21:05:28.528Z,16.38
2023-05-08T21:08:03.478Z,16.43
2023-05-08T21:10:37.906Z,15.31
2023-05-08T21:13:10.873Z,15.39
2023-05-08T21:15:43.748Z,15.52
2023-05-08T21:18:16.924Z,14.90
2023-05-08T21:20:50.854Z,15.49
2023-05-08T21:23:23.836Z,15.52
2023-05-08T21:25:57.999Z,15.32
2023-05-08T21:28:30.950Z,15.66
2023-05-08T21:31:03.802Z,15.68
2023-05-08T21:33:37.615Z,15.45
2023-05-08T21:36:10.559Z,14.75
2023-05-08T21:38:43.504Z,15.57
2023-05-08T21:41:17.645Z,15.53
2023-05-08T21:43:50.763Z,15.79
2023-05-08T21:46:23.601Z,15.06
2023-05-08T21:48:56.569Z,15.19
2023-05-08T21:51:29.476Z,15.44
2023-05-08T21:54:02.539Z,15.72
2023-05-08T21:56:36.808Z,14.74
2023-05-08T21:59:09.809Z,15.46
2023-05-08T22:01:42.665Z,14.99
2023-05-08T22:04:15.887Z,14.56
2023-05-08T22:06:48.753Z,14.83
2023-05-08T22:09:21.723Z,15.08
2023-05-08T22:11:55.901Z,15.40
2023-05-08T22:14:28.857Z,15.35
2023-05-08T22:17:01.947Z,14.87
2023-05-08T22:19:34.748Z,14.94
2023-05-08T22:22:07.645Z,15.04
2023-05-08T22:24:40.872Z,15.14
2023-05-08T22:27:15.030Z,14.48
2023-05-08T22:29:47.840Z,14.42
2023-05-08T22:32:20.746Z,15.26
2023-05-08T22:34:53.600Z,14.63
2023-05-08T22:37:26.452Z,14.89
2023-05-08T22:39:59.557Z,14.97
2023-05-08T22:42:33.882Z,14.52
2023-05-08T22:45:07.552Z,14.71
2023-05-08T22:47:40.858Z,14.69
2023-05-08T22:50:13.737Z,14.77
2023-05-08T22:52:46.768Z,15.40
2023-05-08T22:55:21.193Z,15.29
2023-05-08T22:57:55.336Z,15.41
2023-05-08T23:00:28.232Z,15.17
2023-05-08T23:03:01.382Z,15.23
2023-05-08T23:05:34.280Z,15.01
2023-05-08T23:08:07.265Z,15.02
2023-05-08T23:10:40.391Z,14.21
2023-05-08T23:13:14.661Z,14.39
2023-05-08T23:15:47.642Z,15.05
2023-05-08T23:18:20.458Z,14.95
2023-05-08T23:20:53.245Z,15.00
2023-05-08T23:23:26.076Z,14.70
2023-05-08T23:26:01.153Z,14.43
2023-05-08T23:28:50.263Z,14.67
2023-05-08T23:31:37.980Z,14.86
2023-05-08T23:34:25.671Z,14.87
2023-05-08T23:37:13.377Z,14.48
2023-05-08T23:39:46.112Z,14.92
2023-05-08T23:42:20.476Z,14.56
2023-05-08T23:44:54.943Z,14.30
2023-05-08T23:47:27.947Z,14.28
2023-05-08T23:50:01.165Z,14.33
2023-05-08T23:52:33.955Z,14.49
2023-05-08T23:55:07.354Z,14.80
2023-05-08T23:57:41.291Z,14.99
